sensor_id;sensor_type;location;lat;lon;timestamp;temperature;humidity
67769;DHT22;54569;52.018;5.584;2023-12-14T00:00:26;7.30;99.90
67769;DHT22;54569;52.018;5.584;2023-12-14T00:02:52;7.20;99.90
67769;DHT22;54569;52.018;5.584;2023-12-14T00:05:17;7.20;99.90
67769;DHT22;54569;52.018;5.584;2023-12-14T00:07:43;7.30;99.90
67769;DHT22;54569;52.018;5.584;2023-12-14T00:10:09;7.20;99.90
67769;DHT22;54569;52.018;5.584;2023-12-14T00:12:34;7.20;99.90
67769;DHT22;54569;52.018;5.584;2023-12-14T00:15:00;7.20;99.90
67769;DHT22;54569;52.018;5.584;2023-12-14T00:17:26;7.20;99.90
67769;DHT22;54569;52.018;5.584;2023-12-14T00:19:51;7.10;99.90
67769;DHT22;54569;52.018;5.584;2023-12-14T00:22:17;7.10;99.90
67769;DHT22;54569;52.018;5.584;2023-12-14T00:24:43;7.10;99.90
67769;DHT22;54569;52.018;5.584;2023-12-14T00:27:08;7.10;99.90
67769;DHT22;54569;52.018;5.584;2023-12-14T00:29:34;7.00;99.90
67769;DHT22;54569;52.018;5.584;2023-12-14T00:31:59;7.00;99.90
67769;DHT22;54569;52.018;5.584;2023-12-14T00:34:25;7.00;99.90
67769;DHT22;54569;52.018;5.584;2023-12-14T00:36:51;7.00;99.90
67769;DHT22;54569;52.018;5.584;2023-12-14T00:39:16;6.90;99.90
67769;DHT22;54569;52.018;5.584;2023-12-14T00:41:42;6.90;99.90
67769;DHT22;54569;52.018;5.584;2023-12-14T00:44:07;6.90;99.90
67769;DHT22;54569;52.018;5.584;2023-12-14T00:46:33;6.90;99.90
67769;DHT22;54569;52.018;5.584;2023-12-14T00:48:59;6.90;99.90
67769;DHT22;54569;52.018;5.584;2023-12-14T00:51:25;6.90;99.90
67769;DHT22;54569;52.018;5.584;2023-12-14T00:53:50;7.00;99.90
67769;DHT22;54569;52.018;5.584;2023-12-14T00:56:16;6.90;99.90
67769;DHT22;54569;52.018;5.584;2023-12-14T00:58:42;6.90;99.90
67769;DHT22;54569;52.018;5.584;2023-12-14T01:01:08;6.90;99.90
67769;DHT22;54569;52.018;5.584;2023-12-14T01:03:33;6.90;99.90
67769;DHT22;54569;52.018;5.584;2023-12-14T01:05:59;6.80;99.90
67769;DHT22;54569;52.018;5.584;2023-12-14T01:08:24;6.80;99.90
67769;DHT22;54569;52.018;5.584;2023-12-14T01:10:50;6.90;99.90
67769;DHT22;54569;52.018;5.584;2023-12-14T01:13:16;6.80;99.90
67769;DHT22;54569;52.018;5.584;2023-12-14T01:15:41;6.80;99.90
67769;DHT22;54569;52.018;5.584;2023-12-14T01:18:07;6.80;99.90
67769;DHT22;54569;52.018;5.584;2023-12-14T01:20:33;6.80;99.90
67769;DHT22;54569;52.018;5.584;2023-12-14T01:22:58;6.80;99.90
67769;DHT22;54569;52.018;5.584;2023-12-14T01:25:24;6.80;99.90
67769;DHT22;54569;52.018;5.584;2023-12-14T01:27:50;6.80;99.90
67769;DHT22;54569;52.018;5.584;2023-12-14T01:30:15;6.80;99.90
67769;DHT22;54569;52.018;5.584;2023-12-14T01:32:41;6.80;99.90
67769;DHT22;54569;52.018;5.584;2023-12-14T01:35:07;6.80;99.90
67769;DHT22;54569;52.018;5.584;2023-12-14T01:37:33;6.80;99.90
67769;DHT22;54569;52.018;5.584;2023-12-14T01:39:58;6.70;99.90
67769;DHT22;54569;52.018;5.584;2023-12-14T01:42:24;6.70;99.90
67769;DHT22;54569;52.018;5.584;2023-12-14T01:44:49;6.70;99.90
67769;DHT22;54569;52.018;5.584;2023-12-14T01:47:15;6.80;99.90
67769;DHT22;54569;52.018;5.584;2023-12-14T01:49:41;6.70;99.90
67769;DHT22;54569;52.018;5.584;2023-12-14T01:52:07;6.70;99.90
67769;DHT22;54569;52.018;5.584;2023-12-14T01:54:33;6.70;99.90
67769;DHT22;54569;52.018;5.584;2023-12-14T01:56:59;6.70;99.90
67769;DHT22;54569;52.018;5.584;2023-12-14T01:59:25;6.70;99.90
67769;DHT22;54569;52.018;5.584;2023-12-14T02:01:54;6.70;99.90
67769;DHT22;54569;52.018;5.584;2023-12-14T02:04:23;6.70;99.90
67769;DHT22;54569;52.018;5.584;2023-12-14T02:06:49;6.70;99.90
67769;DHT22;54569;52.018;5.584;2023-12-14T02:09:15;6.70;99.90
67769;DHT22;54569;52.018;5.584;2023-12-14T02:11:40;6.70;99.90
67769;DHT22;54569;52.018;5.584;2023-12-14T02:14:09;6.70;99.90
67769;DHT22;54569;52.018;5.584;2023-12-14T02:16:34;6.70;99.90
67769;DHT22;54569;52.018;5.584;2023-12-14T02:19:00;6.70;99.90
67769;DHT22;54569;52.018;5.584;2023-12-14T02:21:26;6.70;99.90
67769;DHT22;54569;52.018;5.584;2023-12-14T02:23:52;6.70;99.90
67769;DHT22;54569;52.018;5.584;2023-12-14T02:26:17;6.70;99.90
67769;DHT22;54569;52.018;5.584;2023-12-14T02:28:43;6.70;99.90
67769;DHT22;54569;52.018;5.584;2023-12-14T02:31:09;6.70;99.90
67769;DHT22;54569;52.018;5.584;2023-12-14T02:33:34;6.70;99.90
67769;DHT22;54569;52.018;5.584;2023-12-14T02:36:00;6.70;99.90
67769;DHT22;54569;52.018;5.584;2023-12-14T02:38:26;6.70;99.90
67769;DHT22;54569;52.018;5.584;2023-12-14T02:40:52;6.70;99.90
67769;DHT22;54569;52.018;5.584;2023-12-14T02:43:19;6.70;99.90
67769;DHT22;54569;52.018;5.584;2023-12-14T02:45:45;6.80;99.90
67769;DHT22;54569;52.018;5.584;2023-12-14T02:48:11;6.80;99.90
67769;DHT22;54569;52.018;5.584;2023-12-14T02:50:37;6.80;99.90
67769;DHT22;54569;52.018;5.584;2023-12-14T02:53:02;6.80;99.90
67769;DHT22;54569;52.018;5.584;2023-12-14T02:55:28;6.80;99.90
67769;DHT22;54569;52.018;5.584;2023-12-14T02:57:54;6.80;99.90
67769;DHT22;54569;52.018;5.584;2023-12-14T03:00:19;6.80;99.90
67769;DHT22;54569;52.018;5.584;2023-12-14T03:02:49;6.80;99.90
67769;DHT22;54569;52.018;5.584;2023-12-14T03:05:15;6.80;99.90
67769;DHT22;54569;52.018;5.584;2023-12-14T03:07:44;6.80;99.90
67769;DHT22;54569;52.018;5.584;2023-12-14T03:10:09;6.80;99.90
67769;DHT22;54569;52.018;5.584;2023-12-14T03:12:36;6.70;99.90
67769;DHT22;54569;52.018;5.584;2023-12-14T03:15:03;6.70;99.90
67769;DHT22;54569;52.018;5.584;2023-12-14T03:17:29;6.70;99.90
67769;DHT22;54569;52.018;5.584;2023-12-14T03:19:54;6.70;99.90
67769;DHT22;54569;52.018;5.584;2023-12-14T03:22:20;6.70;99.90
67769;DHT22;54569;52.018;5.584;2023-12-14T03:24:46;6.70;99.90
67769;DHT22;54569;52.018;5.584;2023-12-14T03:27:11;6.70;99.90
67769;DHT22;54569;52.018;5.584;2023-12-14T03:29:37;6.80;99.90
67769;DHT22;54569;52.018;5.584;2023-12-14T03:32:03;6.70;99.90
67769;DHT22;54569;52.018;5.584;2023-12-14T03:34:28;6.70;99.90
67769;DHT22;54569;52.018;5.584;2023-12-14T03:36:54;6.80;99.90
67769;DHT22;54569;52.018;5.584;2023-12-14T03:39:20;6.80;99.90
67769;DHT22;54569;52.018;5.584;2023-12-14T03:41:46;6.80;99.90
67769;DHT22;54569;52.018;5.584;2023-12-14T03:44:11;6.80;99.90
67769;DHT22;54569;52.018;5.584;2023-12-14T03:46:37;6.80;99.90
67769;DHT22;54569;52.018;5.584;2023-12-14T03:49:03;6.80;99.90
67769;DHT22;54569;52.018;5.584;2023-12-14T03:51:30;6.80;99.90
67769;DHT22;54569;52.018;5.584;2023-12-14T03:53:55;6.80;99.90
67769;DHT22;54569;52.018;5.584;2023-12-14T03:56:21;6.80;99.90
67769;DHT22;54569;52.018;5.584;2023-12-14T03:58:47;6.70;99.90
67769;DHT22;54569;52.018;5.584;2023-12-14T04:01:17;6.70;99.90
67769;DHT22;54569;52.018;5.584;2023-12-14T04:03:43;6.70;99.90
67769;DHT22;54569;52.018;5.584;2023-12-14T04:06:10;6.80;99.90
67769;DHT22;54569;52.018;5.584;2023-12-14T04:08:36;6.70;99.90
67769;DHT22;54569;52.018;5.584;2023-12-14T04:11:01;6.70;99.90
67769;DHT22;54569;52.018;5.584;2023-12-14T04:13:27;6.80;99.90
67769;DHT22;54569;52.018;5.584;2023-12-14T04:15:53;6.80;99.90
67769;DHT22;54569;52.018;5.584;2023-12-14T04:18:18;6.80;99.90
67769;DHT22;54569;52.018;5.584;2023-12-14T04:20:44;6.80;99.90
67769;DHT22;54569;52.018;5.584;2023-12-14T04:23:09;6.70;99.90
67769;DHT22;54569;52.018;5.584;2023-12-14T04:25:35;6.70;99.90
67769;DHT22;54569;52.018;5.584;2023-12-14T04:28:01;6.70;99.90
67769;DHT22;54569;52.018;5.584;2023-12-14T04:30:26;6.70;99.90
67769;DHT22;54569;52.018;5.584;2023-12-14T04:32:52;6.70;99.90
67769;DHT22;54569;52.018;5.584;2023-12-14T04:35:18;6.70;99.90
67769;DHT22;54569;52.018;5.584;2023-12-14T04:37:44;6.70;99.90
67769;DHT22;54569;52.018;5.584;2023-12-14T04:40:10;6.70;99.90
67769;DHT22;54569;52.018;5.584;2023-12-14T04:42:36;6.70;99.90
67769;DHT22;54569;52.018;5.584;2023-12-14T04:45:01;6.70;99.90
67769;DHT22;54569;52.018;5.584;2023-12-14T04:47:27;6.70;99.90
67769;DHT22;54569;52.018;5.584;2023-12-14T04:49:54;6.70;99.90
67769;DHT22;54569;52.018;5.584;2023-12-14T04:52:19;6.70;99.90
67769;DHT22;54569;52.018;5.584;2023-12-14T04:54:45;6.80;99.90
67769;DHT22;54569;52.018;5.584;2023-12-14T04:57:11;6.70;99.90
67769;DHT22;54569;52.018;5.584;2023-12-14T04:59:36;6.70;99.90
67769;DHT22;54569;52.018;5.584;2023-12-14T05:02:02;6.70;99.90
67769;DHT22;54569;52.018;5.584;2023-12-14T05:04:27;6.70;99.90
67769;DHT22;54569;52.018;5.584;2023-12-14T05:06:54;6.80;99.90
67769;DHT22;54569;52.018;5.584;2023-12-14T05:09:19;6.80;99.90
67769;DHT22;54569;52.018;5.584;2023-12-14T05:11:45;6.80;99.90
67769;DHT22;54569;52.018;5.584;2023-12-14T05:14:11;6.80;99.90
67769;DHT22;54569;52.018;5.584;2023-12-14T05:16:36;6.80;99.90
67769;DHT22;54569;52.018;5.584;2023-12-14T05:19:02;6.80;99.90
67769;DHT22;54569;52.018;5.584;2023-12-14T05:21:28;6.80;99.90
67769;DHT22;54569;52.018;5.584;2023-12-14T05:23:54;6.80;99.90
67769;DHT22;54569;52.018;5.584;2023-12-14T05:26:19;6.80;99.90
67769;DHT22;54569;52.018;5.584;2023-12-14T05:28:45;6.80;99.90
67769;DHT22;54569;52.018;5.584;2023-12-14T05:31:11;6.80;99.90
67769;DHT22;54569;52.018;5.584;2023-12-14T05:33:37;6.80;99.90
67769;DHT22;54569;52.018;5.584;2023-12-14T05:36:03;6.80;99.90
67769;DHT22;54569;52.018;5.584;2023-12-14T05:38:31;6.70;99.90
67769;DHT22;54569;52.018;5.584;2023-12-14T05:40:57;6.70;99.90
67769;DHT22;54569;52.018;5.584;2023-12-14T05:43:22;6.70;99.90
67769;DHT22;54569;52.018;5.584;2023-12-14T05:45:48;6.70;99.90
67769;DHT22;54569;52.018;5.584;2023-12-14T05:48:14;6.70;99.90
67769;DHT22;54569;52.018;5.584;2023-12-14T05:50:40;6.70;99.90
67769;DHT22;54569;52.018;5.584;2023-12-14T05:53:06;6.70;99.90
67769;DHT22;54569;52.018;5.584;2023-12-14T05:55:31;6.70;99.90
67769;DHT22;54569;52.018;5.584;2023-12-14T05:57:57;6.70;99.90
67769;DHT22;54569;52.018;5.584;2023-12-14T06:00:23;6.70;99.90
67769;DHT22;54569;52.018;5.584;2023-12-14T06:02:48;6.70;99.90
67769;DHT22;54569;52.018;5.584;2023-12-14T06:05:14;6.70;99.90
67769;DHT22;54569;52.018;5.584;2023-12-14T06:07:40;6.70;99.90
67769;DHT22;54569;52.018;5.584;2023-12-14T06:10:06;6.70;99.90
67769;DHT22;54569;52.018;5.584;2023-12-14T06:12:32;6.70;99.90
67769;DHT22;54569;52.018;5.584;2023-12-14T06:14:57;6.70;99.90
67769;DHT22;54569;52.018;5.584;2023-12-14T06:17:23;6.70;99.90
67769;DHT22;54569;52.018;5.584;2023-12-14T06:19:48;6.70;99.90
67769;DHT22;54569;52.018;5.584;2023-12-14T06:22:14;6.70;99.90
67769;DHT22;54569;52.018;5.584;2023-12-14T06:24:40;6.70;99.90
67769;DHT22;54569;52.018;5.584;2023-12-14T06:27:07;6.70;99.90
67769;DHT22;54569;52.018;5.584;2023-12-14T06:29:32;6.70;99.90
67769;DHT22;54569;52.018;5.584;2023-12-14T06:31:58;6.70;99.90
67769;DHT22;54569;52.018;5.584;2023-12-14T06:34:24;6.70;99.90
67769;DHT22;54569;52.018;5.584;2023-12-14T06:36:50;6.70;99.90
67769;DHT22;54569;52.018;5.584;2023-12-14T06:39:18;6.70;99.90
67769;DHT22;54569;52.018;5.584;2023-12-14T06:41:43;6.60;99.90
67769;DHT22;54569;52.018;5.584;2023-12-14T06:44:09;6.70;99.90
67769;DHT22;54569;52.018;5.584;2023-12-14T06:46:35;6.60;99.90
67769;DHT22;54569;52.018;5.584;2023-12-14T06:49:02;6.60;99.90
67769;DHT22;54569;52.018;5.584;2023-12-14T06:51:27;6.60;99.90
67769;DHT22;54569;52.018;5.584;2023-12-14T06:53:53;6.70;99.90
67769;DHT22;54569;52.018;5.584;2023-12-14T06:56:18;6.60;99.90
67769;DHT22;54569;52.018;5.584;2023-12-14T06:58:44;6.60;99.90
67769;DHT22;54569;52.018;5.584;2023-12-14T07:01:14;6.60;99.90
67769;DHT22;54569;52.018;5.584;2023-12-14T07:03:44;6.60;99.90
67769;DHT22;54569;52.018;5.584;2023-12-14T07:06:16;6.60;99.90
67769;DHT22;54569;52.018;5.584;2023-12-14T07:08:42;6.50;99.90
67769;DHT22;54569;52.018;5.584;2023-12-14T07:11:09;6.50;99.90
67769;DHT22;54569;52.018;5.584;2023-12-14T07:13:34;6.50;99.90
67769;DHT22;54569;52.018;5.584;2023-12-14T07:16:07;6.40;99.90
67769;DHT22;54569;52.018;5.584;2023-12-14T07:18:34;6.40;99.90
67769;DHT22;54569;52.018;5.584;2023-12-14T07:21:01;6.40;99.90
67769;DHT22;54569;52.018;5.584;2023-12-14T07:23:27;6.30;99.90
67769;DHT22;54569;52.018;5.584;2023-12-14T07:25:53;6.30;99.90
67769;DHT22;54569;52.018;5.584;2023-12-14T07:28:18;6.30;99.90
67769;DHT22;54569;52.018;5.584;2023-12-14T07:30:45;6.30;99.90
67769;DHT22;54569;52.018;5.584;2023-12-14T07:33:12;6.30;99.90
67769;DHT22;54569;52.018;5.584;2023-12-14T07:35:38;6.30;99.90
67769;DHT22;54569;52.018;5.584;2023-12-14T07:38:03;6.30;99.90
67769;DHT22;54569;52.018;5.584;2023-12-14T07:40:29;6.20;99.90
67769;DHT22;54569;52.018;5.584;2023-12-14T07:42:55;6.30;99.90
67769;DHT22;54569;52.018;5.584;2023-12-14T07:45:20;6.20;99.90
67769;DHT22;54569;52.018;5.584;2023-12-14T07:47:46;6.20;99.90
67769;DHT22;54569;52.018;5.584;2023-12-14T07:50:12;6.20;99.90
67769;DHT22;54569;52.018;5.584;2023-12-14T07:52:39;6.20;99.90
67769;DHT22;54569;52.018;5.584;2023-12-14T07:55:05;6.20;99.90
67769;DHT22;54569;52.018;5.584;2023-12-14T07:57:31;6.20;99.90
67769;DHT22;54569;52.018;5.584;2023-12-14T07:59:57;6.20;99.90
67769;DHT22;54569;52.018;5.584;2023-12-14T08:02:23;6.20;99.90
67769;DHT22;54569;52.018;5.584;2023-12-14T08:04:48;6.20;99.90
67769;DHT22;54569;52.018;5.584;2023-12-14T08:07:14;6.20;99.90
67769;DHT22;54569;52.018;5.584;2023-12-14T08:09:40;6.20;99.90
67769;DHT22;54569;52.018;5.584;2023-12-14T08:12:06;6.20;99.90
67769;DHT22;54569;52.018;5.584;2023-12-14T08:14:33;6.20;99.90
67769;DHT22;54569;52.018;5.584;2023-12-14T08:16:59;6.20;99.90
67769;DHT22;54569;52.018;5.584;2023-12-14T08:19:25;6.20;99.90
67769;DHT22;54569;52.018;5.584;2023-12-14T08:21:51;6.30;99.90
67769;DHT22;54569;52.018;5.584;2023-12-14T08:24:16;6.30;99.90
67769;DHT22;54569;52.018;5.584;2023-12-14T08:26:42;6.30;99.90
67769;DHT22;54569;52.018;5.584;2023-12-14T08:29:08;6.30;99.90
67769;DHT22;54569;52.018;5.584;2023-12-14T08:31:34;6.30;99.90
67769;DHT22;54569;52.018;5.584;2023-12-14T08:34:00;6.30;99.90
67769;DHT22;54569;52.018;5.584;2023-12-14T08:36:26;6.30;99.90
67769;DHT22;54569;52.018;5.584;2023-12-14T08:38:52;6.30;99.90
67769;DHT22;54569;52.018;5.584;2023-12-14T08:41:17;6.30;99.90
67769;DHT22;54569;52.018;5.584;2023-12-14T08:43:43;6.30;99.90
67769;DHT22;54569;52.018;5.584;2023-12-14T08:46:09;6.30;99.90
67769;DHT22;54569;52.018;5.584;2023-12-14T08:48:35;6.30;99.90
67769;DHT22;54569;52.018;5.584;2023-12-14T08:51:01;6.30;99.90
67769;DHT22;54569;52.018;5.584;2023-12-14T08:53:27;6.30;99.90
67769;DHT22;54569;52.018;5.584;2023-12-14T08:55:54;6.30;99.90
67769;DHT22;54569;52.018;5.584;2023-12-14T08:58:19;6.30;99.90
67769;DHT22;54569;52.018;5.584;2023-12-14T09:00:46;6.30;99.90
67769;DHT22;54569;52.018;5.584;2023-12-14T09:03:12;6.40;99.90
67769;DHT22;54569;52.018;5.584;2023-12-14T09:05:37;6.40;99.90
67769;DHT22;54569;52.018;5.584;2023-12-14T09:08:07;6.40;99.90
67769;DHT22;54569;52.018;5.584;2023-12-14T09:10:33;6.40;99.90
67769;DHT22;54569;52.018;5.584;2023-12-14T09:12:59;6.40;99.90
67769;DHT22;54569;52.018;5.584;2023-12-14T09:15:25;6.40;99.90
67769;DHT22;54569;52.018;5.584;2023-12-14T09:17:51;6.40;99.90
67769;DHT22;54569;52.018;5.584;2023-12-14T09:20:17;6.40;99.90
67769;DHT22;54569;52.018;5.584;2023-12-14T09:22:42;6.40;99.90
67769;DHT22;54569;52.018;5.584;2023-12-14T09:25:08;6.40;99.90
67769;DHT22;54569;52.018;5.584;2023-12-14T09:27:35;6.40;99.90
67769;DHT22;54569;52.018;5.584;2023-12-14T09:30:02;6.40;99.90
67769;DHT22;54569;52.018;5.584;2023-12-14T09:32:27;6.40;99.90
67769;DHT22;54569;52.018;5.584;2023-12-14T09:34:53;6.40;99.90
67769;DHT22;54569;52.018;5.584;2023-12-14T09:37:22;6.40;99.90
67769;DHT22;54569;52.018;5.584;2023-12-14T09:39:48;6.40;99.90
67769;DHT22;54569;52.018;5.584;2023-12-14T09:42:16;6.30;99.90
67769;DHT22;54569;52.018;5.584;2023-12-14T09:44:43;6.40;99.90
67769;DHT22;54569;52.018;5.584;2023-12-14T09:47:09;6.40;99.90
67769;DHT22;54569;52.018;5.584;2023-12-14T09:49:36;6.40;99.90
67769;DHT22;54569;52.018;5.584;2023-12-14T09:52:02;6.40;99.90
67769;DHT22;54569;52.018;5.584;2023-12-14T09:54:28;6.40;99.90
67769;DHT22;54569;52.018;5.584;2023-12-14T09:56:54;6.40;99.90
67769;DHT22;54569;52.018;5.584;2023-12-14T09:59:20;6.50;99.90
67769;DHT22;54569;52.018;5.584;2023-12-14T10:01:47;6.40;99.90
67769;DHT22;54569;52.018;5.584;2023-12-14T10:04:14;6.50;99.90
67769;DHT22;54569;52.018;5.584;2023-12-14T10:06:41;6.50;99.90
67769;DHT22;54569;52.018;5.584;2023-12-14T10:09:08;6.50;99.90
67769;DHT22;54569;52.018;5.584;2023-12-14T10:11:44;6.50;99.90
67769;DHT22;54569;52.018;5.584;2023-12-14T10:14:20;6.60;99.90
67769;DHT22;54569;52.018;5.584;2023-12-14T10:16:47;6.60;99.90
67769;DHT22;54569;52.018;5.584;2023-12-14T10:19:13;6.60;99.90
67769;DHT22;54569;52.018;5.584;2023-12-14T10:21:39;6.60;99.90
67769;DHT22;54569;52.018;5.584;2023-12-14T10:24:05;6.60;99.90
67769;DHT22;54569;52.018;5.584;2023-12-14T10:26:31;6.60;99.90
67769;DHT22;54569;52.018;5.584;2023-12-14T10:28:57;6.60;99.90
67769;DHT22;54569;52.018;5.584;2023-12-14T10:31:24;6.60;99.90
67769;DHT22;54569;52.018;5.584;2023-12-14T10:33:49;6.60;99.90
67769;DHT22;54569;52.018;5.584;2023-12-14T10:36:19;6.60;99.90
67769;DHT22;54569;52.018;5.584;2023-12-14T10:38:56;6.60;99.90
67769;DHT22;54569;52.018;5.584;2023-12-14T10:41:26;6.60;99.90
67769;DHT22;54569;52.018;5.584;2023-12-14T10:43:54;6.60;99.90
67769;DHT22;54569;52.018;5.584;2023-12-14T10:46:20;6.70;99.90
67769;DHT22;54569;52.018;5.584;2023-12-14T10:48:51;6.70;99.90
67769;DHT22;54569;52.018;5.584;2023-12-14T10:51:22;6.80;99.90
67769;DHT22;54569;52.018;5.584;2023-12-14T10:53:49;6.80;99.90
67769;DHT22;54569;52.018;5.584;2023-12-14T10:56:16;6.80;99.90
67769;DHT22;54569;52.018;5.584;2023-12-14T10:58:50;6.80;99.90
67769;DHT22;54569;52.018;5.584;2023-12-14T11:01:17;6.80;99.90
67769;DHT22;54569;52.018;5.584;2023-12-14T11:03:44;6.70;99.90
67769;DHT22;54569;52.018;5.584;2023-12-14T11:08:58;6.80;99.90
67769;DHT22;54569;52.018;5.584;2023-12-14T11:11:28;6.80;99.90
67769;DHT22;54569;52.018;5.584;2023-12-14T11:13:54;6.80;99.90
67769;DHT22;54569;52.018;5.584;2023-12-14T11:16:20;6.80;99.90
67769;DHT22;54569;52.018;5.584;2023-12-14T11:18:47;6.90;99.90
67769;DHT22;54569;52.018;5.584;2023-12-14T11:21:22;6.90;99.90
67769;DHT22;54569;52.018;5.584;2023-12-14T11:23:50;7.00;99.90
67769;DHT22;54569;52.018;5.584;2023-12-14T11:26:21;7.00;99.90
67769;DHT22;54569;52.018;5.584;2023-12-14T11:28:50;7.10;99.90
67769;DHT22;54569;52.018;5.584;2023-12-14T11:31:16;7.10;99.90
67769;DHT22;54569;52.018;5.584;2023-12-14T11:33:43;7.20;99.90
67769;DHT22;54569;52.018;5.584;2023-12-14T11:36:11;7.20;99.90
67769;DHT22;54569;52.018;5.584;2023-12-14T11:38:37;7.30;99.90
67769;DHT22;54569;52.018;5.584;2023-12-14T11:41:03;7.30;99.90
67769;DHT22;54569;52.018;5.584;2023-12-14T11:43:29;7.30;99.90
67769;DHT22;54569;52.018;5.584;2023-12-14T11:45:55;7.40;99.90
67769;DHT22;54569;52.018;5.584;2023-12-14T11:48:21;7.60;99.90
67769;DHT22;54569;52.018;5.584;2023-12-14T11:50:50;8.00;99.90
67769;DHT22;54569;52.018;5.584;2023-12-14T11:53:15;8.40;99.90
67769;DHT22;54569;52.018;5.584;2023-12-14T11:55:42;9.10;99.90
67769;DHT22;54569;52.018;5.584;2023-12-14T11:58:09;9.70;99.90
67769;DHT22;54569;52.018;5.584;2023-12-14T12:00:37;10.20;99.90
67769;DHT22;54569;52.018;5.584;2023-12-14T12:03:13;10.60;99.30
67769;DHT22;54569;52.018;5.584;2023-12-14T12:05:44;10.80;97.70
67769;DHT22;54569;52.018;5.584;2023-12-14T12:08:11;11.00;96.80
67769;DHT22;54569;52.018;5.584;2023-12-14T12:10:37;11.20;96.40
67769;DHT22;54569;52.018;5.584;2023-12-14T12:13:06;11.30;95.70
67769;DHT22;54569;52.018;5.584;2023-12-14T12:15:32;11.40;95.30
67769;DHT22;54569;52.018;5.584;2023-12-14T12:18:06;11.30;95.10
67769;DHT22;54569;52.018;5.584;2023-12-14T12:20:32;11.30;95.10
67769;DHT22;54569;52.018;5.584;2023-12-14T12:22:58;11.20;95.00
67769;DHT22;54569;52.018;5.584;2023-12-14T12:25:24;11.20;95.20
67769;DHT22;54569;52.018;5.584;2023-12-14T12:27:49;11.10;95.20
67769;DHT22;54569;52.018;5.584;2023-12-14T12:30:15;10.90;95.40
67769;DHT22;54569;52.018;5.584;2023-12-14T12:32:44;10.70;95.50
67769;DHT22;54569;52.018;5.584;2023-12-14T12:35:09;10.60;95.90
67769;DHT22;54569;52.018;5.584;2023-12-14T12:37:35;10.40;96.50
67769;DHT22;54569;52.018;5.584;2023-12-14T12:40:01;10.20;97.00
67769;DHT22;54569;52.018;5.584;2023-12-14T12:42:26;10.10;97.30
67769;DHT22;54569;52.018;5.584;2023-12-14T12:44:52;9.90;97.60
67769;DHT22;54569;52.018;5.584;2023-12-14T12:47:18;9.80;98.10
67769;DHT22;54569;52.018;5.584;2023-12-14T12:49:43;9.60;98.50
67769;DHT22;54569;52.018;5.584;2023-12-14T12:52:09;9.50;98.70
67769;DHT22;54569;52.018;5.584;2023-12-14T12:54:35;9.40;98.80
67769;DHT22;54569;52.018;5.584;2023-12-14T12:57:01;9.20;99.10
67769;DHT22;54569;52.018;5.584;2023-12-14T12:59:27;9.10;99.50
67769;DHT22;54569;52.018;5.584;2023-12-14T13:01:53;9.10;99.80
67769;DHT22;54569;52.018;5.584;2023-12-14T13:04:20;9.00;99.90
67769;DHT22;54569;52.018;5.584;2023-12-14T13:06:47;9.00;99.90
67769;DHT22;54569;52.018;5.584;2023-12-14T13:09:14;8.90;99.90
67769;DHT22;54569;52.018;5.584;2023-12-14T13:11:40;8.80;99.90
67769;DHT22;54569;52.018;5.584;2023-12-14T13:14:06;8.80;99.90
67769;DHT22;54569;52.018;5.584;2023-12-14T13:16:37;8.70;99.90
67769;DHT22;54569;52.018;5.584;2023-12-14T13:19:03;8.70;99.90
67769;DHT22;54569;52.018;5.584;2023-12-14T13:21:30;8.60;99.90
67769;DHT22;54569;52.018;5.584;2023-12-14T13:23:55;8.60;99.90
67769;DHT22;54569;52.018;5.584;2023-12-14T13:26:24;8.60;99.90
67769;DHT22;54569;52.018;5.584;2023-12-14T13:28:51;8.50;99.90
67769;DHT22;54569;52.018;5.584;2023-12-14T13:31:17;8.50;99.90
67769;DHT22;54569;52.018;5.584;2023-12-14T13:33:43;8.40;99.90
67769;DHT22;54569;52.018;5.584;2023-12-14T13:36:09;8.40;99.90
67769;DHT22;54569;52.018;5.584;2023-12-14T13:38:35;8.30;99.90
67769;DHT22;54569;52.018;5.584;2023-12-14T13:41:02;8.30;99.90
67769;DHT22;54569;52.018;5.584;2023-12-14T13:43:29;8.30;99.90
67769;DHT22;54569;52.018;5.584;2023-12-14T13:45:55;8.30;99.90
67769;DHT22;54569;52.018;5.584;2023-12-14T13:48:27;8.20;99.90
67769;DHT22;54569;52.018;5.584;2023-12-14T13:50:54;8.20;99.90
67769;DHT22;54569;52.018;5.584;2023-12-14T13:53:21;8.10;99.90
67769;DHT22;54569;52.018;5.584;2023-12-14T13:55:47;8.10;99.90
67769;DHT22;54569;52.018;5.584;2023-12-14T13:58:14;8.10;99.90
67769;DHT22;54569;52.018;5.584;2023-12-14T14:00:42;8.10;99.90
67769;DHT22;54569;52.018;5.584;2023-12-14T14:03:09;8.10;99.90
67769;DHT22;54569;52.018;5.584;2023-12-14T14:05:35;8.10;99.90
67769;DHT22;54569;52.018;5.584;2023-12-14T14:08:01;8.10;99.90
67769;DHT22;54569;52.018;5.584;2023-12-14T14:10:27;8.10;99.90
67769;DHT22;54569;52.018;5.584;2023-12-14T14:12:52;8.10;99.90
67769;DHT22;54569;52.018;5.584;2023-12-14T14:15:18;8.00;99.90
67769;DHT22;54569;52.018;5.584;2023-12-14T14:17:46;7.90;99.90
67769;DHT22;54569;52.018;5.584;2023-12-14T14:20:13;7.80;99.90
67769;DHT22;54569;52.018;5.584;2023-12-14T14:22:39;7.80;99.90
67769;DHT22;54569;52.018;5.584;2023-12-14T14:25:06;7.80;99.90
67769;DHT22;54569;52.018;5.584;2023-12-14T14:27:32;7.80;99.90
67769;DHT22;54569;52.018;5.584;2023-12-14T14:29:59;7.80;99.90
67769;DHT22;54569;52.018;5.584;2023-12-14T14:32:24;7.80;99.90
67769;DHT22;54569;52.018;5.584;2023-12-14T14:34:50;7.80;99.90
67769;DHT22;54569;52.018;5.584;2023-12-14T14:37:16;7.70;99.90
67769;DHT22;54569;52.018;5.584;2023-12-14T14:39:42;7.70;99.90
67769;DHT22;54569;52.018;5.584;2023-12-14T14:42:09;7.70;99.90
67769;DHT22;54569;52.018;5.584;2023-12-14T14:44:34;7.70;99.90
67769;DHT22;54569;52.018;5.584;2023-12-14T14:47:00;7.70;99.90
67769;DHT22;54569;52.018;5.584;2023-12-14T14:49:27;7.60;99.90
67769;DHT22;54569;52.018;5.584;2023-12-14T14:51:53;7.60;99.90
67769;DHT22;54569;52.018;5.584;2023-12-14T14:54:19;7.50;99.90
67769;DHT22;54569;52.018;5.584;2023-12-14T14:56:44;7.40;99.90
67769;DHT22;54569;52.018;5.584;2023-12-14T14:59:10;7.40;99.90
67769;DHT22;54569;52.018;5.584;2023-12-14T15:01:37;7.30;99.90
67769;DHT22;54569;52.018;5.584;2023-12-14T15:04:03;7.30;99.90
67769;DHT22;54569;52.018;5.584;2023-12-14T15:06:29;7.30;99.90
67769;DHT22;54569;52.018;5.584;2023-12-14T15:08:54;7.30;99.90
67769;DHT22;54569;52.018;5.584;2023-12-14T15:11:20;7.30;99.90
67769;DHT22;54569;52.018;5.584;2023-12-14T15:13:46;7.30;99.90
67769;DHT22;54569;52.018;5.584;2023-12-14T15:16:11;7.20;99.90
67769;DHT22;54569;52.018;5.584;2023-12-14T15:18:38;7.20;99.90
67769;DHT22;54569;52.018;5.584;2023-12-14T15:21:10;7.10;99.90
67769;DHT22;54569;52.018;5.584;2023-12-14T15:23:36;7.10;99.90
67769;DHT22;54569;52.018;5.584;2023-12-14T15:26:02;7.10;99.90
67769;DHT22;54569;52.018;5.584;2023-12-14T15:28:28;7.00;99.90
67769;DHT22;54569;52.018;5.584;2023-12-14T15:30:54;7.00;99.90
67769;DHT22;54569;52.018;5.584;2023-12-14T15:33:19;7.00;99.90
67769;DHT22;54569;52.018;5.584;2023-12-14T15:35:46;7.00;99.90
67769;DHT22;54569;52.018;5.584;2023-12-14T15:38:11;7.00;99.90
67769;DHT22;54569;52.018;5.584;2023-12-14T15:40:37;7.00;99.90